sensor_id;sensor_type;location;lat;lon;timestamp;pressure;altitude;pressure_sealevel;temperature;humidity
26376;BME280;30544;42.196;24.336;2022-08-19T00:01:18;98581.81;;;26.89;43.40
26376;BME280;30544;42.196;24.336;2022-08-19T00:03:45;98573.88;;;26.98;43.08
26376;BME280;30544;42.196;24.336;2022-08-19T00:06:12;98573.00;;;26.94;42.79
26376;BME280;30544;42.196;24.336;2022-08-19T00:08:40;98578.22;;;27.08;43.53
26376;BME280;30544;42.196;24.336;2022-08-19T00:11:07;98573.63;;;27.03;42.91
26376;BME280;30544;42.196;24.336;2022-08-19T00:13:34;98572.91;;;27.06;42.66
26376;BME280;30544;42.196;24.336;2022-08-19T00:16:02;98575.06;;;27.13;42.92
26376;BME280;30544;42.196;24.336;2022-08-19T00:18:29;98572.28;;;27.16;42.93
26376;BME280;30544;42.196;24.336;2022-08-19T00:20:57;98568.94;;;27.11;43.13
26376;BME280;30544;42.196;24.336;2022-08-19T00:23:24;98558.47;;;26.99;42.83
26376;BME280;30544;42.196;24.336;2022-08-19T00:25:53;98568.56;;;27.12;43.18
26376;BME280;30544;42.196;24.336;2022-08-19T00:28:19;98568.31;;;26.86;43.58
26376;BME280;30544;42.196;24.336;2022-08-19T00:30:47;98563.63;;;26.93;42.79
26376;BME280;30544;42.196;24.336;2022-08-19T00:33:13;98563.69;;;26.78;43.68
26376;BME280;30544;42.196;24.336;2022-08-19T00:35:41;98565.31;;;26.79;43.65
26376;BME280;30544;42.196;24.336;2022-08-19T00:38:08;98574.59;;;26.76;43.28
26376;BME280;30544;42.196;24.336;2022-08-19T00:40:35;98573.22;;;26.69;43.65
26376;BME280;30544;42.196;24.336;2022-08-19T00:43:09;98575.41;;;26.41;45.46
26376;BME280;30544;42.196;24.336;2022-08-19T00:45:36;98577.56;;;26.32;46.57
26376;BME280;30544;42.196;24.336;2022-08-19T00:48:03;98565.81;;;26.18;46.38
26376;BME280;30544;42.196;24.336;2022-08-19T00:50:31;98564.59;;;25.43;49.14
26376;BME280;30544;42.196;24.336;2022-08-19T00:52:58;98563.22;;;25.37;48.75
26376;BME280;30544;42.196;24.336;2022-08-19T00:55:26;98564.28;;;25.61;47.34
26376;BME280;30544;42.196;24.336;2022-08-19T00:57:56;98560.41;;;25.81;45.84
26376;BME280;30544;42.196;24.336;2022-08-19T01:00:27;98561.16;;;25.94;46.12
26376;BME280;30544;42.196;24.336;2022-08-19T01:02:54;98567.84;;;26.01;45.88
26376;BME280;30544;42.196;24.336;2022-08-19T01:05:23;98556.22;;;25.91;45.49
26376;BME280;30544;42.196;24.336;2022-08-19T01:07:53;98554.81;;;26.00;45.39
26376;BME280;30544;42.196;24.336;2022-08-19T01:10:24;98573.06;;;25.99;45.84
26376;BME280;30544;42.196;24.336;2022-08-19T01:12:52;98574.47;;;26.05;46.15
26376;BME280;30544;42.196;24.336;2022-08-19T01:15:23;98569.22;;;25.92;46.99
26376;BME280;30544;42.196;24.336;2022-08-19T01:17:54;98578.09;;;25.34;49.75
26376;BME280;30544;42.196;24.336;2022-08-19T01:20:23;98571.09;;;25.16;50.02
26376;BME280;30544;42.196;24.336;2022-08-19T01:22:53;98574.22;;;24.86;50.59
26376;BME280;30544;42.196;24.336;2022-08-19T01:25:24;98582.75;;;24.74;51.17
26376;BME280;30544;42.196;24.336;2022-08-19T01:27:53;98576.88;;;24.55;52.00
26376;BME280;30544;42.196;24.336;2022-08-19T01:30:25;98571.66;;;24.57;51.81
26376;BME280;30544;42.196;24.336;2022-08-19T01:32:54;98582.50;;;24.67;51.56
26376;BME280;30544;42.196;24.336;2022-08-19T01:35:22;98587.44;;;24.82;50.93
26376;BME280;30544;42.196;24.336;2022-08-19T01:37:53;98585.59;;;24.74;51.26
26376;BME280;30544;42.196;24.336;2022-08-19T01:40:22;98594.56;;;24.64;52.00
26376;BME280;30544;42.196;24.336;2022-08-19T01:42:50;98593.34;;;24.89;50.14
26376;BME280;30544;42.196;24.336;2022-08-19T01:45:19;98596.16;;;25.02;49.26
26376;BME280;30544;42.196;24.336;2022-08-19T01:47:46;98589.53;;;25.10;48.82
26376;BME280;30544;42.196;24.336;2022-08-19T01:50:13;98592.22;;;25.18;48.64
26376;BME280;30544;42.196;24.336;2022-08-19T01:52:42;98596.25;;;25.17;48.57
26376;BME280;30544;42.196;24.336;2022-08-19T01:55:14;98588.44;;;25.27;48.18
26376;BME280;30544;42.196;24.336;2022-08-19T01:57:46;98582.03;;;25.30;48.19
26376;BME280;30544;42.196;24.336;2022-08-19T02:00:16;98589.00;;;25.32;48.01
26376;BME280;30544;42.196;24.336;2022-08-19T02:02:44;98593.94;;;25.35;48.01
26376;BME280;30544;42.196;24.336;2022-08-19T02:05:12;98591.09;;;25.35;48.24
26376;BME280;30544;42.196;24.336;2022-08-19T02:07:39;98602.41;;;25.19;48.96
26376;BME280;30544;42.196;24.336;2022-08-19T02:10:09;98593.66;;;25.25;48.50
26376;BME280;30544;42.196;24.336;2022-08-19T02:12:37;98605.84;;;25.13;49.06
26376;BME280;30544;42.196;24.336;2022-08-19T02:15:05;98598.53;;;25.12;49.07
26376;BME280;30544;42.196;24.336;2022-08-19T02:17:32;98595.56;;;25.21;48.82
26376;BME280;30544;42.196;24.336;2022-08-19T02:19:59;98610.34;;;25.14;48.97
26376;BME280;30544;42.196;24.336;2022-08-19T02:22:26;98605.94;;;25.16;48.92
26376;BME280;30544;42.196;24.336;2022-08-19T02:24:54;98607.66;;;25.05;48.82
26376;BME280;30544;42.196;24.336;2022-08-19T02:27:22;98611.31;;;25.06;48.76
26376;BME280;30544;42.196;24.336;2022-08-19T02:29:50;98609.66;;;25.05;48.71
26376;BME280;30544;42.196;24.336;2022-08-19T02:32:18;98620.94;;;25.17;48.72
26376;BME280;30544;42.196;24.336;2022-08-19T02:34:45;98618.53;;;25.03;49.46
26376;BME280;30544;42.196;24.336;2022-08-19T02:37:12;98625.72;;;25.01;49.14
26376;BME280;30544;42.196;24.336;2022-08-19T02:39:52;98625.88;;;24.55;51.27
26376;BME280;30544;42.196;24.336;2022-08-19T02:42:19;98632.09;;;24.49;52.41
26376;BME280;30544;42.196;24.336;2022-08-19T02:44:46;98625.84;;;24.31;53.28
26376;BME280;30544;42.196;24.336;2022-08-19T02:47:14;98613.41;;;24.11;54.68
26376;BME280;30544;42.196;24.336;2022-08-19T02:49:41;98612.69;;;24.02;54.60
26376;BME280;30544;42.196;24.336;2022-08-19T02:52:08;98619.75;;;23.96;54.82
26376;BME280;30544;42.196;24.336;2022-08-19T02:54:36;98622.06;;;23.82;54.55
26376;BME280;30544;42.196;24.336;2022-08-19T02:57:04;98623.69;;;23.50;56.65
26376;BME280;30544;42.196;24.336;2022-08-19T02:59:32;98633.38;;;23.28;57.25
26376;BME280;30544;42.196;24.336;2022-08-19T03:01:59;98625.56;;;23.25;57.38
26376;BME280;30544;42.196;24.336;2022-08-19T03:04:27;98626.59;;;23.41;57.30
26376;BME280;30544;42.196;24.336;2022-08-19T03:06:55;98630.81;;;23.14;58.13
26376;BME280;30544;42.196;24.336;2022-08-19T03:09:22;98644.72;;;22.98;57.84
26376;BME280;30544;42.196;24.336;2022-08-19T03:11:49;98641.78;;;22.95;57.91
26376;BME280;30544;42.196;24.336;2022-08-19T03:14:15;98640.72;;;22.99;58.09
26376;BME280;30544;42.196;24.336;2022-08-19T03:16:46;98640.94;;;22.94;58.42
26376;BME280;30544;42.196;24.336;2022-08-19T03:19:13;98653.03;;;23.03;57.89
26376;BME280;30544;42.196;24.336;2022-08-19T03:21:43;98654.34;;;23.06;57.83
26376;BME280;30544;42.196;24.336;2022-08-19T03:24:11;98657.78;;;22.91;57.89
26376;BME280;30544;42.196;24.336;2022-08-19T03:26:39;98671.56;;;23.13;57.50
26376;BME280;30544;42.196;24.336;2022-08-19T03:29:06;98674.41;;;23.13;57.59
26376;BME280;30544;42.196;24.336;2022-08-19T03:31:34;98678.28;;;23.08;57.42
26376;BME280;30544;42.196;24.336;2022-08-19T03:34:01;98683.03;;;23.17;57.79
26376;BME280;30544;42.196;24.336;2022-08-19T03:36:28;98680.97;;;23.26;57.19
26376;BME280;30544;42.196;24.336;2022-08-19T03:38:57;98680.97;;;23.26;57.20
26376;BME280;30544;42.196;24.336;2022-08-19T03:41:26;98679.09;;;23.30;57.41
26376;BME280;30544;42.196;24.336;2022-08-19T03:43:54;98682.75;;;23.30;57.19
26376;BME280;30544;42.196;24.336;2022-08-19T03:46:23;98680.19;;;23.17;57.03
26376;BME280;30544;42.196;24.336;2022-08-19T03:48:52;98682.34;;;23.20;57.39
26376;BME280;30544;42.196;24.336;2022-08-19T03:51:22;98687.53;;;23.38;57.38
26376;BME280;30544;42.196;24.336;2022-08-19T03:53:50;98686.63;;;23.47;56.76
26376;BME280;30544;42.196;24.336;2022-08-19T03:56:19;98685.78;;;23.46;56.76
26376;BME280;30544;42.196;24.336;2022-08-19T03:58:46;98694.28;;;23.46;57.35
26376;BME280;30544;42.196;24.336;2022-08-19T04:01:15;98687.56;;;23.59;56.74
26376;BME280;30544;42.196;24.336;2022-08-19T04:03:43;98692.97;;;23.85;56.28
26376;BME280;30544;42.196;24.336;2022-08-19T04:06:12;98694.00;;;24.83;53.64
26376;BME280;30544;42.196;24.336;2022-08-19T04:08:39;98691.56;;;25.59;50.80
26376;BME280;30544;42.196;24.336;2022-08-19T04:11:07;98686.38;;;26.32;48.64
26376;BME280;30544;42.196;24.336;2022-08-19T04:13:36;98687.97;;;26.93;47.43
26376;BME280;30544;42.196;24.336;2022-08-19T04:16:03;98693.44;;;27.17;46.34
26376;BME280;30544;42.196;24.336;2022-08-19T04:18:30;98697.44;;;25.66;49.50
26376;BME280;30544;42.196;24.336;2022-08-19T04:20:58;98696.84;;;25.20;50.52
26376;BME280;30544;42.196;24.336;2022-08-19T04:23:26;98681.94;;;25.23;50.37
26376;BME280;30544;42.196;24.336;2022-08-19T04:25:54;98702.94;;;25.34;51.74
26376;BME280;30544;42.196;24.336;2022-08-19T04:28:22;98709.34;;;25.31;50.55
26376;BME280;30544;42.196;24.336;2022-08-19T04:30:52;98709.34;;;25.31;50.71
26376;BME280;30544;42.196;24.336;2022-08-19T04:33:21;98699.56;;;24.92;52.13
26376;BME280;30544;42.196;24.336;2022-08-19T04:35:51;98708.94;;;25.05;52.11
26376;BME280;30544;42.196;24.336;2022-08-19T04:38:20;98709.63;;;25.02;51.84
26376;BME280;30544;42.196;24.336;2022-08-19T04:40:50;98707.25;;;25.16;51.63
26376;BME280;30544;42.196;24.336;2022-08-19T04:43:37;98711.72;;;25.17;51.36
26376;BME280;30544;42.196;24.336;2022-08-19T04:46:06;98712.19;;;25.19;51.33
26376;BME280;30544;42.196;24.336;2022-08-19T04:48:33;98700.84;;;25.31;51.27
26376;BME280;30544;42.196;24.336;2022-08-19T04:51:00;98697.88;;;25.40;50.51
26376;BME280;30544;42.196;24.336;2022-08-19T04:53:29;98702.72;;;25.39;50.62
26376;BME280;30544;42.196;24.336;2022-08-19T04:55:57;98687.47;;;25.32;51.29
26376;BME280;30544;42.196;24.336;2022-08-19T04:58:28;98698.88;;;25.60;51.46
26376;BME280;30544;42.196;24.336;2022-08-19T05:00:55;98705.44;;;25.88;50.58
26376;BME280;30544;42.196;24.336;2022-08-19T05:03:23;98710.78;;;25.77;50.87
26376;BME280;30544;42.196;24.336;2022-08-19T05:05:50;98702.84;;;26.11;50.45
26376;BME280;30544;42.196;24.336;2022-08-19T05:08:19;98712.56;;;26.10;51.13
26376;BME280;30544;42.196;24.336;2022-08-19T05:10:49;98711.41;;;26.27;50.29
26376;BME280;30544;42.196;24.336;2022-08-19T05:13:18;98715.22;;;26.47;48.92
26376;BME280;30544;42.196;24.336;2022-08-19T05:15:53;98710.03;;;26.21;49.37
26376;BME280;30544;42.196;24.336;2022-08-19T05:18:20;98714.25;;;25.99;50.24
26376;BME280;30544;42.196;24.336;2022-08-19T05:21:07;98719.50;;;26.13;49.42
26376;BME280;30544;42.196;24.336;2022-08-19T05:23:52;98702.72;;;26.35;49.00
26376;BME280;30544;42.196;24.336;2022-08-19T05:26:19;98717.75;;;26.36;48.71
26376;BME280;30544;42.196;24.336;2022-08-19T05:28:46;98726.97;;;26.77;47.59
26376;BME280;30544;42.196;24.336;2022-08-19T05:31:13;98730.91;;;26.56;48.83
26376;BME280;30544;42.196;24.336;2022-08-19T05:33:40;98724.66;;;26.66;48.92
26376;BME280;30544;42.196;24.336;2022-08-19T05:36:08;98731.47;;;27.09;48.12
26376;BME280;30544;42.196;24.336;2022-08-19T05:38:35;98735.13;;;27.61;46.43
26376;BME280;30544;42.196;24.336;2022-08-19T05:41:07;98734.78;;;27.81;45.58
26376;BME280;30544;42.196;24.336;2022-08-19T05:43:34;98737.19;;;27.79;44.73
26376;BME280;30544;42.196;24.336;2022-08-19T05:46:01;98737.06;;;28.11;44.46
26376;BME280;30544;42.196;24.336;2022-08-19T05:48:27;98731.31;;;28.50;44.48
26376;BME280;30544;42.196;24.336;2022-08-19T05:50:55;98736.69;;;28.32;43.71
26376;BME280;30544;42.196;24.336;2022-08-19T05:53:23;98740.22;;;28.06;43.49
26376;BME280;30544;42.196;24.336;2022-08-19T05:55:50;98746.44;;;28.31;42.98
26376;BME280;30544;42.196;24.336;2022-08-19T05:58:17;98738.06;;;28.61;42.83
26376;BME280;30544;42.196;24.336;2022-08-19T06:00:44;98738.00;;;28.80;43.24
26376;BME280;30544;42.196;24.336;2022-08-19T06:03:11;98740.47;;;28.59;41.79
26376;BME280;30544;42.196;24.336;2022-08-19T06:05:38;98743.47;;;29.12;41.90
26376;BME280;30544;42.196;24.336;2022-08-19T06:08:04;98740.94;;;29.07;41.37
26376;BME280;30544;42.196;24.336;2022-08-19T06:10:34;98743.09;;;29.40;40.95
26376;BME280;30544;42.196;24.336;2022-08-19T06:13:02;98738.94;;;29.60;42.12
26376;BME280;30544;42.196;24.336;2022-08-19T06:15:31;98741.78;;;29.60;41.97
26376;BME280;30544;42.196;24.336;2022-08-19T06:17:57;98739.22;;;29.51;40.77
26376;BME280;30544;42.196;24.336;2022-08-19T06:20:25;98742.50;;;29.27;40.87
26376;BME280;30544;42.196;24.336;2022-08-19T06:22:51;98739.28;;;29.32;40.79
26376;BME280;30544;42.196;24.336;2022-08-19T06:25:19;98744.56;;;29.83;40.41
26376;BME280;30544;42.196;24.336;2022-08-19T06:27:47;98742.66;;;29.64;40.21
26376;BME280;30544;42.196;24.336;2022-08-19T06:30:14;98743.53;;;29.98;39.74
26376;BME280;30544;42.196;24.336;2022-08-19T06:32:41;98739.25;;;30.11;40.12
26376;BME280;30544;42.196;24.336;2022-08-19T06:35:08;98739.22;;;30.08;39.07
26376;BME280;30544;42.196;24.336;2022-08-19T06:37:36;98742.69;;;30.24;40.16
26376;BME280;30544;42.196;24.336;2022-08-19T06:40:03;98735.84;;;30.36;39.90
26376;BME280;30544;42.196;24.336;2022-08-19T06:42:31;98742.16;;;30.52;39.84
26376;BME280;30544;42.196;24.336;2022-08-19T06:44:59;98733.75;;;29.99;39.91
26376;BME280;30544;42.196;24.336;2022-08-19T06:47:28;98739.06;;;30.31;40.21
26376;BME280;30544;42.196;24.336;2022-08-19T06:49:56;98730.91;;;30.33;40.34
26376;BME280;30544;42.196;24.336;2022-08-19T06:52:27;98735.94;;;30.43;39.68
26376;BME280;30544;42.196;24.336;2022-08-19T06:54:54;98734.00;;;30.54;39.42
26376;BME280;30544;42.196;24.336;2022-08-19T06:57:23;98740.47;;;30.84;38.95
26376;BME280;30544;42.196;24.336;2022-08-19T06:59:50;98734.78;;;30.88;38.94
26376;BME280;30544;42.196;24.336;2022-08-19T07:02:19;98732.97;;;30.69;39.23
26376;BME280;30544;42.196;24.336;2022-08-19T07:04:46;98738.19;;;29.93;40.61
26376;BME280;30544;42.196;24.336;2022-08-19T07:07:14;98744.22;;;30.55;39.02
26376;BME280;30544;42.196;24.336;2022-08-19T07:09:43;98735.81;;;30.32;39.72
26376;BME280;30544;42.196;24.336;2022-08-19T07:12:12;98737.19;;;30.82;38.81
26376;BME280;30544;42.196;24.336;2022-08-19T07:14:41;98734.75;;;31.25;37.94
26376;BME280;30544;42.196;24.336;2022-08-19T07:17:09;98729.97;;;30.96;37.72
26376;BME280;30544;42.196;24.336;2022-08-19T07:19:39;98722.75;;;31.16;39.06
26376;BME280;30544;42.196;24.336;2022-08-19T07:22:07;98726.59;;;31.96;37.20
26376;BME280;30544;42.196;24.336;2022-08-19T07:24:36;98716.56;;;31.62;38.07
26376;BME280;30544;42.196;24.336;2022-08-19T07:27:05;98721.50;;;31.65;37.88
26376;BME280;30544;42.196;24.336;2022-08-19T07:29:34;98717.00;;;31.67;37.75
26376;BME280;30544;42.196;24.336;2022-08-19T07:32:02;98714.00;;;31.42;37.19
26376;BME280;30544;42.196;24.336;2022-08-19T07:34:30;98717.38;;;31.59;38.37
26376;BME280;30544;42.196;24.336;2022-08-19T07:36:59;98720.06;;;31.99;37.55
26376;BME280;30544;42.196;24.336;2022-08-19T07:39:28;98713.16;;;32.15;36.24
26376;BME280;30544;42.196;24.336;2022-08-19T07:41:57;98716.38;;;31.99;36.74
26376;BME280;30544;42.196;24.336;2022-08-19T07:44:24;98708.81;;;32.74;36.50
26376;BME280;30544;42.196;24.336;2022-08-19T07:46:54;98720.94;;;32.18;36.46
26376;BME280;30544;42.196;24.336;2022-08-19T07:49:21;98715.22;;;32.21;37.27
26376;BME280;30544;42.196;24.336;2022-08-19T07:51:50;98711.66;;;32.42;37.25
26376;BME280;30544;42.196;24.336;2022-08-19T07:54:20;98712.94;;;32.77;36.10
26376;BME280;30544;42.196;24.336;2022-08-19T07:56:47;98727.03;;;31.98;36.27
26376;BME280;30544;42.196;24.336;2022-08-19T07:59:14;98715.63;;;32.13;35.28
26376;BME280;30544;42.196;24.336;2022-08-19T08:01:42;98718.63;;;32.52;35.19
26376;BME280;30544;42.196;24.336;2022-08-19T08:04:09;98718.50;;;32.20;35.23
26376;BME280;30544;42.196;24.336;2022-08-19T08:06:55;98712.44;;;32.39;34.94
26376;BME280;30544;42.196;24.336;2022-08-19T08:09:42;98711.94;;;32.16;35.28
26376;BME280;30544;42.196;24.336;2022-08-19T08:12:11;98718.25;;;32.60;35.18
26376;BME280;30544;42.196;24.336;2022-08-19T08:14:41;98721.53;;;32.73;34.29
26376;BME280;30544;42.196;24.336;2022-08-19T08:17:09;98709.69;;;33.17;34.88
26376;BME280;30544;42.196;24.336;2022-08-19T08:19:36;98712.97;;;33.12;34.29
26376;BME280;30544;42.196;24.336;2022-08-19T08:22:04;98710.47;;;33.25;33.48
26376;BME280;30544;42.196;24.336;2022-08-19T08:24:32;98699.75;;;33.72;34.41
26376;BME280;30544;42.196;24.336;2022-08-19T08:27:01;98699.81;;;33.54;34.03
26376;BME280;30544;42.196;24.336;2022-08-19T08:29:30;98701.50;;;33.34;32.85
26376;BME280;30544;42.196;24.336;2022-08-19T08:31:57;98702.22;;;33.70;33.11
26376;BME280;30544;42.196;24.336;2022-08-19T08:34:24;98691.63;;;33.20;33.54
26376;BME280;30544;42.196;24.336;2022-08-19T08:36:51;98687.94;;;33.27;34.40
26376;BME280;30544;42.196;24.336;2022-08-19T08:39:20;98683.25;;;34.01;32.49
26376;BME280;30544;42.196;24.336;2022-08-19T08:41:51;98686.00;;;34.26;33.30
26376;BME280;30544;42.196;24.336;2022-08-19T08:44:23;98681.84;;;34.45;33.72
26376;BME280;30544;42.196;24.336;2022-08-19T08:46:54;98680.66;;;34.31;31.40
26376;BME280;30544;42.196;24.336;2022-08-19T08:49:29;98677.34;;;34.33;32.94
26376;BME280;30544;42.196;24.336;2022-08-19T08:52:02;98679.25;;;34.57;31.45
26376;BME280;30544;42.196;24.336;2022-08-19T08:54:33;98675.56;;;34.60;31.81
26376;BME280;30544;42.196;24.336;2022-08-19T08:57:03;98672.88;;;34.94;30.77
26376;BME280;30544;42.196;24.336;2022-08-19T08:59:37;98675.53;;;35.16;31.93
26376;BME280;30544;42.196;24.336;2022-08-19T09:02:06;98669.56;;;34.92;31.78
26376;BME280;30544;42.196;24.336;2022-08-19T09:04:34;98666.16;;;35.05;30.98
26376;BME280;30544;42.196;24.336;2022-08-19T09:07:13;98663.06;;;34.81;29.84
26376;BME280;30544;42.196;24.336;2022-08-19T09:09:48;98663.75;;;35.00;29.74
26376;BME280;30544;42.196;24.336;2022-08-19T09:12:20;98663.91;;;34.75;30.21
26376;BME280;30544;42.196;24.336;2022-08-19T09:14:54;98664.88;;;35.13;31.02
26376;BME280;30544;42.196;24.336;2022-08-19T09:17:24;98651.22;;;34.68;30.45
26376;BME280;30544;42.196;24.336;2022-08-19T09:19:54;98651.81;;;34.46;30.35
26376;BME280;30544;42.196;24.336;2022-08-19T09:22:22;98655.63;;;34.87;30.27
26376;BME280;30544;42.196;24.336;2022-08-19T09:24:49;98648.66;;;34.81;29.19
26376;BME280;30544;42.196;24.336;2022-08-19T09:27:17;98649.38;;;35.44;29.29
26376;BME280;30544;42.196;24.336;2022-08-19T09:29:45;98651.50;;;35.71;28.63
26376;BME280;30544;42.196;24.336;2022-08-19T09:32:15;98637.47;;;35.73;30.08
26376;BME280;30544;42.196;24.336;2022-08-19T09:34:42;98643.88;;;35.91;28.32
26376;BME280;30544;42.196;24.336;2022-08-19T09:37:09;98637.72;;;35.14;29.86
26376;BME280;30544;42.196;24.336;2022-08-19T09:39:37;98634.53;;;35.42;28.99
26376;BME280;30544;42.196;24.336;2022-08-19T09:42:06;98639.28;;;35.97;30.09
26376;BME280;30544;42.196;24.336;2022-08-19T09:44:37;98633.56;;;35.56;28.80
26376;BME280;30544;42.196;24.336;2022-08-19T09:47:04;98634.66;;;36.03;28.81
26376;BME280;30544;42.196;24.336;2022-08-19T09:49:32;98626.19;;;36.20;28.86
26376;BME280;30544;42.196;24.336;2022-08-19T09:51:59;98625.00;;;36.44;28.99
26376;BME280;30544;42.196;24.336;2022-08-19T09:54:27;98621.66;;;36.49;29.07
26376;BME280;30544;42.196;24.336;2022-08-19T09:56:55;98620.19;;;35.73;29.76
26376;BME280;30544;42.196;24.336;2022-08-19T09:59:22;98609.84;;;36.09;28.73
26376;BME280;30544;42.196;24.336;2022-08-19T10:01:49;98609.31;;;35.88;28.88
26376;BME280;30544;42.196;24.336;2022-08-19T10:04:16;98603.16;;;35.51;28.53
26376;BME280;30544;42.196;24.336;2022-08-19T10:06:44;98606.06;;;35.82;28.28
26376;BME280;30544;42.196;24.336;2022-08-19T10:09:13;98604.47;;;35.77;27.09
26376;BME280;30544;42.196;24.336;2022-08-19T10:11:43;98601.63;;;36.08;26.96
26376;BME280;30544;42.196;24.336;2022-08-19T10:14:14;98594.69;;;36.32;26.31
26376;BME280;30544;42.196;24.336;2022-08-19T10:16:42;98597.53;;;36.05;26.60
26376;BME280;30544;42.196;24.336;2022-08-19T10:19:09;98591.97;;;35.91;27.75
26376;BME280;30544;42.196;24.336;2022-08-19T10:21:36;98591.69;;;36.12;26.31
26376;BME280;30544;42.196;24.336;2022-08-19T10:24:05;98590.16;;;36.58;27.86
26376;BME280;30544;42.196;24.336;2022-08-19T10:26:36;98590.22;;;36.55;27.71
26376;BME280;30544;42.196;24.336;2022-08-19T10:29:04;98584.44;;;36.82;26.90
26376;BME280;30544;42.196;24.336;2022-08-19T10:31:32;98590.28;;;36.51;26.45
26376;BME280;30544;42.196;24.336;2022-08-19T10:34:00;98575.63;;;36.65;26.31
26376;BME280;30544;42.196;24.336;2022-08-19T10:36:29;98583.75;;;36.70;25.98
26376;BME280;30544;42.196;24.336;2022-08-19T10:38:58;98572.31;;;36.90;25.60
26376;BME280;30544;42.196;24.336;2022-08-19T10:41:31;98574.09;;;37.27;27.24
26376;BME280;30544;42.196;24.336;2022-08-19T10:44:03;98569.44;;;37.10;26.46
26376;BME280;30544;42.196;24.336;2022-08-19T10:46:31;98568.66;;;37.33;25.76
26376;BME280;30544;42.196;24.336;2022-08-19T10:48:59;98573.38;;;37.00;25.04
26376;BME280;30544;42.196;24.336;2022-08-19T10:51:26;98570.31;;;36.60;24.02
26376;BME280;30544;42.196;24.336;2022-08-19T10:54:10;98569.84;;;36.65;24.59
26376;BME280;30544;42.196;24.336;2022-08-19T10:56:39;98559.63;;;36.84;25.04
26376;BME280;30544;42.196;24.336;2022-08-19T10:59:18;98562.19;;;37.02;26.14
26376;BME280;30544;42.196;24.336;2022-08-19T11:01:46;98552.50;;;37.12;24.77
26376;BME280;30544;42.196;24.336;2022-08-19T11:04:13;98550.94;;;37.31;24.85
26376;BME280;30544;42.196;24.336;2022-08-19T11:06:43;98552.88;;;37.14;24.86
26376;BME280;30544;42.196;24.336;2022-08-19T11:09:13;98552.53;;;36.89;26.28
26376;BME280;30544;42.196;24.336;2022-08-19T11:11:42;98549.41;;;36.80;24.54
26376;BME280;30544;42.196;24.336;2022-08-19T11:14:13;98550.16;;;36.84;25.11
26376;BME280;30544;42.196;24.336;2022-08-19T11:16:41;98547.16;;;37.34;23.99
26376;BME280;30544;42.196;24.336;2022-08-19T11:19:09;98544.88;;;37.22;24.58
26376;BME280;30544;42.196;24.336;2022-08-19T11:21:39;98539.13;;;37.42;24.77
26376;BME280;30544;42.196;24.336;2022-08-19T11:24:08;98538.94;;;37.09;25.31
26376;BME280;30544;42.196;24.336;2022-08-19T11:26:36;98529.25;;;37.19;25.62
26376;BME280;30544;42.196;24.336;2022-08-19T11:29:06;98521.88;;;37.38;25.99
26376;BME280;30544;42.196;24.336;2022-08-19T11:31:37;98537.75;;;37.50;24.49
26376;BME280;30544;42.196;24.336;2022-08-19T11:34:07;98524.72;;;36.98;24.89
26376;BME280;30544;42.196;24.336;2022-08-19T11:36:36;98523.81;;;37.01;24.57
26376;BME280;30544;42.196;24.336;2022-08-19T11:39:04;98521.84;;;37.18;24.14
26376;BME280;30544;42.196;24.336;2022-08-19T11:41:32;98505.56;;;37.28;25.13
26376;BME280;30544;42.196;24.336;2022-08-19T11:43:59;98515.72;;;37.56;25.35
26376;BME280;30544;42.196;24.336;2022-08-19T11:46:29;98509.97;;;37.72;24.71
26376;BME280;30544;42.196;24.336;2022-08-19T11:48:57;98515.72;;;37.56;26.17
26376;BME280;30544;42.196;24.336;2022-08-19T11:51:26;98507.50;;;37.54;24.33
26376;BME280;30544;42.196;24.336;2022-08-19T11:53:54;98512.03;;;37.91;24.01
26376;BME280;30544;42.196;24.336;2022-08-19T11:56:22;98498.44;;;37.52;25.30
26376;BME280;30544;42.196;24.336;2022-08-19T11:58:50;98493.53;;;37.69;25.80
26376;BME280;30544;42.196;24.336;2022-08-19T12:01:19;98491.91;;;37.68;24.69
26376;BME280;30544;42.196;24.336;2022-08-19T12:03:49;98495.41;;;37.96;25.01
26376;BME280;30544;42.196;24.336;2022-08-19T12:06:18;98485.19;;;37.91;23.97
26376;BME280;30544;42.196;24.336;2022-08-19T12:08:49;98479.59;;;37.84;23.87
26376;BME280;30544;42.196;24.336;2022-08-19T12:11:16;98487.09;;;37.81;25.51
26376;BME280;30544;42.196;24.336;2022-08-19T12:13:43;98467.25;;;38.16;25.29
26376;BME280;30544;42.196;24.336;2022-08-19T12:16:13;98476.41;;;37.78;25.41
26376;BME280;30544;42.196;24.336;2022-08-19T12:18:41;98468.56;;;37.59;25.16
26376;BME280;30544;42.196;24.336;2022-08-19T12:21:10;98472.13;;;37.67;23.72
26376;BME280;30544;42.196;24.336;2022-08-19T12:23:39;98468.56;;;37.95;24.29
26376;BME280;30544;42.196;24.336;2022-08-19T12:26:06;98467.25;;;38.00;23.45
26376;BME280;30544;42.196;24.336;2022-08-19T12:28:33;98463.53;;;37.99;23.97
26376;BME280;30544;42.196;24.336;2022-08-19T12:31:00;98461.47;;;37.44;23.70
26376;BME280;30544;42.196;24.336;2022-08-19T12:33:27;98462.47;;;37.73;24.85
26376;BME280;30544;42.196;24.336;2022-08-19T12:35:54;98458.47;;;38.03;25.04
26376;BME280;30544;42.196;24.336;2022-08-19T12:38:27;98452.78;;;38.00;24.72
26376;BME280;30544;42.196;24.336;2022-08-19T12:40:54;98454.88;;;37.79;25.76
26376;BME280;30544;42.196;24.336;2022-08-19T12:43:21;98453.00;;;37.53;24.04
26376;BME280;30544;42.196;24.336;2022-08-19T12:45:48;98448.69;;;37.97;24.59
26376;BME280;30544;42.196;24.336;2022-08-19T12:48:15;98441.53;;;37.85;25.07
26376;BME280;30544;42.196;24.336;2022-08-19T12:50:43;98450.22;;;37.85;24.34
26376;BME280;30544;42.196;24.336;2022-08-19T12:53:11;98447.50;;;38.11;24.03
26376;BME280;30544;42.196;24.336;2022-08-19T12:55:40;98448.59;;;37.84;25.11
26376;BME280;30544;42.196;24.336;2022-08-19T12:58:08;98450.31;;;37.62;24.82